createdAt,value
2018-06-27T00:02:05.449Z,14.20
2018-06-27T00:04:34.244Z,14.10
2018-06-27T00:07:03.104Z,14.10
2018-06-27T00:09:31.906Z,14.10
2018-06-27T00:12:00.798Z,14.10
2018-06-27T00:14:29.623Z,14.10
2018-06-27T00:16:58.414Z,14.10
2018-06-27T00:19:27.211Z,14.10
2018-06-27T00:21:56.638Z,14.10
2018-06-27T00:24:25.491Z,14.00
2018-06-27T00:26:54.429Z,14.00
2018-06-27T00:29:23.196Z,13.90
2018-06-27T00:31:51.973Z,14.00
2018-06-27T00:34:20.784Z,13.90
2018-06-27T00:36:49.805Z,13.90
2018-06-27T00:39:18.541Z,13.90
2018-06-27T00:41:47.386Z,13.90
2018-06-27T00:44:16.159Z,13.90
2018-06-27T00:46:44.954Z,13.90
2018-06-27T00:49:13.758Z,13.90
2018-06-27T00:51:42.623Z,13.90
2018-06-27T00:54:11.407Z,13.80
2018-06-27T00:56:41.087Z,13.80
2018-06-27T00:59:10.172Z,13.80
2018-06-27T01:01:39.484Z,13.90
2018-06-27T01:04:08.348Z,13.80
2018-06-27T01:06:37.177Z,13.80
2018-06-27T01:09:08.465Z,13.80
2018-06-27T01:11:37.241Z,13.80
2018-06-27T01:14:06.003Z,13.80
2018-06-27T01:16:34.890Z,13.80
2018-06-27T01:19:03.687Z,13.80
2018-06-27T01:21:32.514Z,13.90
2018-06-27T01:24:01.437Z,13.80
2018-06-27T01:26:30.277Z,13.80
2018-06-27T01:28:59.107Z,13.70
2018-06-27T01:31:27.868Z,13.70
2018-06-27T01:33:56.732Z,13.60
2018-06-27T01:38:53.992Z,13.60
2018-06-27T01:41:22.740Z,13.60
2018-06-27T01:43:51.761Z,13.50
2018-06-27T01:46:20.512Z,13.50
2018-06-27T01:48:49.263Z,13.40
2018-06-27T01:51:18.119Z,13.40
2018-06-27T01:53:46.890Z,13.40
2018-06-27T01:56:15.747Z,13.40
2018-06-27T01:58:44.572Z,13.40
2018-06-27T02:01:13.512Z,13.30
2018-06-27T02:03:42.312Z,13.30
2018-06-27T02:06:11.104Z,13.30
2018-06-27T02:08:39.883Z,13.30
2018-06-27T02:11:09.288Z,13.30
2018-06-27T02:13:38.113Z,13.30
2018-06-27T02:16:06.919Z,13.30
2018-06-27T02:18:35.675Z,13.20
2018-06-27T02:21:04.469Z,13.30
2018-06-27T02:23:33.278Z,13.30
2018-06-27T02:26:02.045Z,13.20
2018-06-27T02:28:30.844Z,13.20
2018-06-27T02:30:59.714Z,13.20
2018-06-27T02:33:29.176Z,13.10
2018-06-27T02:35:58.535Z,13.10
2018-06-27T02:38:27.848Z,13.10
2018-06-27T02:40:57.475Z,13.10
2018-06-27T02:43:26.279Z,13.00
2018-06-27T02:45:55.147Z,13.00
2018-06-27T02:50:52.408Z,13.00
2018-06-27T02:53:21.823Z,13.00
2018-06-27T02:55:50.653Z,12.90
2018-06-27T02:58:19.556Z,12.90
2018-06-27T03:00:48.414Z,12.90
2018-06-27T03:03:17.233Z,13.00
2018-06-27T03:05:46.030Z,13.00
2018-06-27T03:08:14.813Z,13.00
2018-06-27T03:10:43.568Z,12.90
2018-06-27T03:13:12.388Z,12.90
2018-06-27T03:15:41.151Z,12.90
2018-06-27T03:18:10.167Z,12.90
2018-06-27T03:20:39.001Z,12.90
2018-06-27T03:23:07.812Z,12.70
2018-06-27T03:25:36.600Z,12.70
2018-06-27T03:28:05.373Z,12.80
2018-06-27T03:30:34.152Z,12.80
2018-06-27T03:33:02.891Z,12.80
2018-06-27T03:35:31.652Z,12.80
2018-06-27T03:38:00.448Z,12.80
2018-06-27T03:40:29.229Z,12.70
2018-06-27T03:42:57.964Z,12.70
2018-06-27T03:45:26.769Z,12.60
2018-06-27T03:47:55.522Z,12.70
2018-06-27T03:50:24.276Z,12.70
2018-06-27T03:52:53.044Z,12.70
2018-06-27T03:57:50.279Z,12.60
2018-06-27T04:00:19.041Z,12.60
2018-06-27T04:02:47.834Z,12.60
2018-06-27T04:05:16.540Z,12.60
2018-06-27T04:07:45.420Z,12.60
2018-06-27T04:10:14.236Z,12.60
2018-06-27T04:12:43.090Z,12.60
2018-06-27T04:15:11.783Z,12.70
2018-06-27T04:17:40.552Z,12.70
2018-06-27T04:20:09.358Z,12.70
2018-06-27T04:22:38.079Z,12.70
2018-06-27T04:25:06.848Z,12.70
2018-06-27T04:27:35.644Z,12.70
2018-06-27T04:30:04.636Z,12.80
2018-06-27T04:32:33.404Z,12.80
2018-06-27T04:35:02.160Z,12.80
2018-06-27T04:37:30.920Z,12.90
2018-06-27T04:39:59.690Z,12.90
2018-06-27T04:42:28.462Z,12.90
2018-06-27T04:44:57.333Z,13.00
2018-06-27T04:47:26.075Z,13.00
2018-06-27T04:49:55.271Z,13.00
2018-06-27T04:52:24.244Z,13.10
2018-06-27T04:54:53.021Z,13.20
2018-06-27T04:57:21.926Z,13.30
2018-06-27T04:59:50.704Z,13.40
2018-06-27T05:02:19.522Z,13.50
2018-06-27T05:04:48.438Z,13.50
2018-06-27T05:07:17.428Z,13.50
2018-06-27T05:09:46.430Z,13.60
2018-06-27T05:12:15.362Z,13.70
2018-06-27T05:14:44.354Z,13.70
2018-06-27T05:17:13.347Z,13.80
2018-06-27T05:19:43.872Z,13.80
2018-06-27T05:22:13.832Z,13.90
2018-06-27T05:24:43.156Z,13.90
2018-06-27T05:27:11.953Z,14.00
2018-06-27T05:29:40.735Z,14.10
2018-06-27T05:32:09.507Z,14.20
2018-06-27T05:34:38.267Z,14.20
2018-06-27T05:37:07.047Z,14.40
2018-06-27T05:39:35.816Z,14.30
2018-06-27T05:42:04.685Z,14.40
2018-06-27T05:44:33.444Z,14.40
2018-06-27T05:47:02.227Z,14.40
2018-06-27T05:49:31.019Z,14.40
2018-06-27T05:52:01.049Z,14.50
2018-06-27T05:54:29.864Z,14.50
2018-06-27T05:56:58.624Z,14.50
2018-06-27T05:59:27.380Z,14.60
2018-06-27T06:01:56.168Z,14.70
2018-06-27T06:04:25.009Z,14.70
2018-06-27T06:06:53.704Z,14.80
2018-06-27T06:09:22.551Z,14.90
2018-06-27T06:11:51.305Z,14.90
2018-06-27T06:14:20.340Z,15.00
2018-06-27T06:16:49.153Z,15.10
2018-06-27T06:19:17.906Z,15.20
2018-06-27T06:21:46.689Z,15.30
2018-06-27T06:24:15.543Z,15.40
2018-06-27T06:26:44.787Z,15.50
2018-06-27T06:29:13.684Z,15.60
2018-06-27T06:31:42.436Z,15.80
2018-06-27T06:34:11.196Z,15.90
2018-06-27T06:36:39.980Z,16.00
2018-06-27T06:39:09.272Z,16.20
2018-06-27T06:41:38.331Z,16.30
2018-06-27T06:44:07.171Z,16.40
2018-06-27T06:46:35.952Z,16.40
2018-06-27T06:49:04.897Z,16.40
2018-06-27T06:51:33.700Z,16.50
2018-06-27T06:54:02.468Z,16.50
2018-06-27T06:56:31.256Z,16.50
2018-06-27T06:59:00.036Z,16.50
2018-06-27T07:01:28.808Z,16.60
2018-06-27T07:03:57.579Z,16.60
2018-06-27T07:06:26.383Z,16.60
2018-06-27T07:08:55.122Z,16.70
2018-06-27T07:11:24.033Z,16.80
2018-06-27T07:13:52.701Z,16.90
2018-06-27T07:16:21.500Z,17.00
2018-06-27T07:18:50.338Z,17.10
2018-06-27T07:21:19.307Z,17.10
2018-06-27T07:23:48.083Z,17.10
2018-06-27T07:26:16.847Z,17.10
2018-06-27T07:28:45.648Z,17.10
2018-06-27T07:31:14.408Z,17.10
2018-06-27T07:33:43.192Z,17.10
2018-06-27T07:36:12.088Z,17.10
2018-06-27T07:38:41.227Z,17.10
2018-06-27T07:41:09.979Z,17.20
2018-06-27T07:43:38.948Z,17.40
2018-06-27T07:46:07.741Z,17.50
2018-06-27T07:48:36.516Z,17.60
2018-06-27T07:51:05.363Z,17.60
2018-06-27T07:53:34.111Z,17.80
2018-06-27T07:56:02.883Z,17.90
2018-06-27T07:58:31.739Z,18.00
2018-06-27T08:01:00.508Z,18.00
2018-06-27T08:03:29.263Z,18.10
2018-06-27T08:05:58.139Z,18.10
2018-06-27T08:08:27.179Z,18.20
2018-06-27T08:10:55.936Z,18.20
2018-06-27T08:13:24.708Z,18.40
2018-06-27T08:15:53.469Z,18.40
2018-06-27T08:18:22.280Z,18.40
2018-06-27T08:20:51.021Z,18.60
2018-06-27T08:23:19.781Z,18.70
2018-06-27T08:25:52.568Z,18.90
2018-06-27T08:28:22.604Z,19.10
2018-06-27T08:30:51.376Z,19.20
2018-06-27T08:33:20.216Z,19.30
2018-06-27T08:35:48.964Z,19.40
2018-06-27T08:38:17.755Z,19.60
2018-06-27T08:40:46.580Z,19.60
2018-06-27T08:43:16.168Z,19.80
2018-06-27T08:45:44.977Z,19.80
2018-06-27T08:48:13.933Z,19.80
2018-06-27T08:50:42.709Z,19.90
2018-06-27T08:53:11.510Z,19.90
2018-06-27T08:55:40.332Z,20.00
2018-06-27T08:58:09.116Z,20.10
2018-06-27T09:00:37.915Z,20.30
2018-06-27T09:03:06.668Z,20.40
2018-06-27T09:05:35.453Z,20.40
2018-06-27T09:08:03.772Z,20.50
2018-06-27T09:10:38.019Z,20.60
2018-06-27T09:13:06.340Z,20.80
2018-06-27T09:15:35.146Z,20.90
2018-06-27T09:18:03.939Z,20.80
2018-06-27T09:20:32.984Z,21.10
2018-06-27T09:23:01.748Z,21.40
2018-06-27T09:25:30.511Z,21.30
2018-06-27T09:27:59.291Z,21.50
2018-06-27T09:30:28.172Z,21.80
2018-06-27T09:32:56.943Z,22.10
2018-06-27T09:35:25.709Z,22.20
2018-06-27T09:37:54.498Z,22.50
2018-06-27T09:40:23.268Z,22.60
2018-06-27T09:42:52.044Z,22.70
2018-06-27T09:45:20.824Z,22.60
2018-06-27T09:47:49.608Z,22.60
2018-06-27T09:50:18.458Z,22.40
2018-06-27T09:52:47.174Z,22.80
2018-06-27T09:55:15.927Z,22.70
2018-06-27T09:57:44.699Z,22.70
2018-06-27T10:00:18.893Z,22.70
2018-06-27T10:02:47.865Z,22.80
2018-06-27T10:05:16.636Z,22.40
2018-06-27T10:07:45.463Z,22.50
2018-06-27T10:10:14.167Z,22.90
2018-06-27T10:12:42.940Z,23.00
2018-06-27T10:15:11.697Z,23.30
2018-06-27T10:17:40.500Z,23.70
2018-06-27T10:20:09.268Z,23.90
2018-06-27T10:22:38.078Z,24.20
2018-06-27T10:25:06.956Z,24.40
2018-06-27T10:27:35.735Z,24.40
2018-06-27T10:30:05.036Z,24.30
2018-06-27T10:32:33.828Z,24.40
2018-06-27T10:35:02.613Z,24.00
2018-06-27T10:37:31.388Z,23.60
2018-06-27T10:40:00.187Z,23.90
2018-06-27T10:42:28.948Z,23.80
2018-06-27T10:44:57.716Z,24.20
2018-06-27T10:47:26.531Z,24.20
2018-06-27T10:49:55.311Z,24.30
2018-06-27T10:52:24.084Z,24.20
2018-06-27T10:54:53.824Z,24.60
2018-06-27T10:57:23.493Z,24.50
2018-06-27T10:59:53.208Z,25.00
2018-06-27T11:02:22.605Z,25.10
2018-06-27T11:04:51.372Z,24.70
2018-06-27T11:07:20.139Z,24.30
2018-06-27T11:09:48.937Z,24.20
2018-06-27T11:12:17.703Z,24.10
2018-06-27T11:14:46.466Z,24.20
2018-06-27T11:17:15.240Z,24.20
2018-06-27T11:19:44.080Z,24.30
2018-06-27T11:22:12.880Z,24.40
2018-06-27T11:24:41.676Z,24.40
2018-06-27T11:27:10.456Z,24.40
2018-06-27T11:29:39.243Z,24.30
2018-06-27T11:32:08.031Z,24.40
2018-06-27T11:34:36.797Z,24.80
2018-06-27T11:37:05.564Z,24.90
2018-06-27T11:39:34.352Z,24.80
2018-06-27T11:42:03.194Z,24.60
2018-06-27T11:44:31.992Z,24.40
2018-06-27T11:47:00.749Z,24.30
2018-06-27T11:49:29.516Z,24.10
2018-06-27T11:51:58.286Z,23.70
2018-06-27T11:54:27.120Z,23.50
2018-06-27T11:56:55.968Z,23.50
2018-06-27T12:01:53.220Z,24.60
2018-06-27T12:04:22.054Z,24.80
2018-06-27T12:06:50.826Z,24.30
2018-06-27T12:09:19.596Z,24.20
2018-06-27T12:11:48.427Z,24.00
2018-06-27T12:14:17.147Z,23.60
2018-06-27T12:16:46.004Z,23.60
2018-06-27T12:19:14.714Z,24.10
2018-06-27T12:21:43.468Z,24.70
2018-06-27T12:24:12.257Z,24.90
2018-06-27T12:26:41.024Z,25.30
2018-06-27T12:29:09.784Z,25.20
2018-06-27T12:31:38.550Z,25.30
2018-06-27T12:34:07.635Z,25.30
2018-06-27T12:36:36.467Z,25.10
2018-06-27T12:39:07.024Z,24.90
2018-06-27T12:41:35.850Z,24.50
2018-06-27T12:44:04.612Z,24.30
2018-06-27T12:46:33.511Z,24.20
2018-06-27T12:49:02.275Z,24.10
2018-06-27T12:51:31.034Z,24.00
2018-06-27T12:53:59.785Z,24.00
2018-06-27T12:56:28.560Z,24.40
2018-06-27T12:58:57.331Z,25.00
2018-06-27T13:01:26.248Z,25.50
2018-06-27T13:03:55.027Z,25.70
2018-06-27T13:06:24.025Z,25.40
2018-06-27T13:08:52.780Z,25.70
2018-06-27T13:11:21.544Z,26.30
2018-06-27T13:16:18.861Z,26.90
2018-06-27T13:18:47.619Z,27.10
2018-06-27T13:21:16.378Z,27.60
2018-06-27T13:23:45.125Z,27.40
2018-06-27T13:26:13.972Z,27.30
2018-06-27T13:28:42.748Z,27.40
2018-06-27T13:31:11.508Z,27.40
2018-06-27T13:33:40.272Z,27.70
2018-06-27T13:36:10.563Z,27.90
2018-06-27T13:38:39.336Z,27.60
2018-06-27T13:41:08.106Z,27.80
2018-06-27T13:43:36.942Z,27.60
2018-06-27T13:46:05.737Z,28.10
2018-06-27T13:48:34.476Z,28.40
2018-06-27T13:51:03.296Z,28.70
2018-06-27T13:53:32.137Z,29.00
2018-06-27T13:56:00.896Z,28.60
2018-06-27T13:58:29.674Z,28.40
2018-06-27T14:00:58.632Z,28.60
2018-06-27T14:03:27.437Z,28.90
2018-06-27T14:05:56.197Z,28.70
2018-06-27T14:08:24.952Z,28.80
2018-06-27T14:10:53.720Z,29.00
2018-06-27T14:13:23.360Z,28.90
2018-06-27T14:15:52.216Z,29.00
2018-06-27T14:18:21.106Z,28.70
2018-06-27T14:20:49.836Z,28.40
2018-06-27T14:23:18.615Z,28.00
2018-06-27T14:25:47.392Z,27.50
2018-06-27T14:28:16.153Z,27.00
2018-06-27T14:30:44.937Z,27.20
2018-06-27T14:33:13.716Z,27.30
2018-06-27T14:35:42.472Z,27.50
2018-06-27T14:38:11.272Z,27.10
2018-06-27T14:40:40.050Z,27.80
2018-06-27T14:43:08.834Z,28.20
2018-06-27T14:45:37.604Z,27.90
2018-06-27T14:48:06.397Z,27.20
2018-06-27T14:50:35.179Z,26.70
2018-06-27T14:53:03.969Z,26.70
2018-06-27T14:55:32.746Z,26.90
2018-06-27T14:58:01.535Z,27.00
2018-06-27T15:00:30.298Z,27.20
2018-06-27T15:02:59.184Z,27.40
2018-06-27T15:05:27.973Z,27.80
2018-06-27T15:07:56.740Z,28.00
2018-06-27T15:10:25.524Z,28.10
2018-06-27T15:15:22.760Z,27.80
2018-06-27T15:17:51.516Z,28.00
2018-06-27T15:20:20.319Z,28.30
2018-06-27T15:22:49.074Z,27.80
2018-06-27T15:25:18.006Z,28.10
2018-06-27T15:27:46.759Z,28.30
2018-06-27T15:30:15.510Z,28.30
2018-06-27T15:32:44.288Z,28.20
2018-06-27T15:35:13.226Z,27.70
2018-06-27T15:37:41.955Z,27.80
2018-06-27T15:40:10.720Z,28.00
2018-06-27T15:42:39.588Z,27.90
2018-06-27T15:45:08.381Z,27.80
2018-06-27T15:47:37.197Z,27.50
2018-06-27T15:50:06.053Z,27.10
2018-06-27T15:52:34.797Z,27.10
2018-06-27T15:55:03.567Z,27.40
2018-06-27T15:57:32.340Z,27.40
2018-06-27T16:00:01.201Z,27.50
2018-06-27T16:02:29.935Z,27.60
2018-06-27T16:04:58.700Z,27.60
2018-06-27T16:07:28.744Z,27.70
2018-06-27T16:09:57.811Z,27.80
2018-06-27T16:12:26.761Z,27.80
2018-06-27T16:14:55.532Z,27.50
2018-06-27T16:17:24.520Z,27.00
2018-06-27T16:19:53.060Z,27.00
2018-06-27T16:22:21.815Z,26.90
2018-06-27T16:24:50.658Z,27.00
2018-06-27T16:27:19.424Z,27.10
2018-06-27T16:29:48.191Z,26.90
2018-06-27T16:32:17.101Z,26.80
2018-06-27T16:34:45.858Z,26.90
2018-06-27T16:37:14.620Z,27.00
2018-06-27T16:39:43.364Z,27.00
2018-06-27T16:42:12.113Z,26.90
2018-06-27T16:44:41.269Z,26.70
2018-06-27T16:47:10.111Z,26.70
2018-06-27T16:49:38.904Z,26.80
2018-06-27T16:52:07.665Z,26.70
2018-06-27T16:54:36.477Z,26.90
2018-06-27T16:57:05.226Z,26.80
2018-06-27T16:59:33.984Z,26.90
2018-06-27T17:02:02.745Z,26.70
2018-06-27T17:04:31.541Z,26.40
2018-06-27T17:07:00.335Z,26.30
2018-06-27T17:09:29.092Z,26.30
2018-06-27T17:11:57.994Z,26.30
2018-06-27T17:14:26.838Z,26.30
2018-06-27T17:16:55.594Z,26.20
2018-06-27T17:19:24.366Z,26.20
2018-06-27T17:21:53.133Z,26.00
2018-06-27T17:24:21.936Z,25.80
2018-06-27T17:26:50.691Z,25.90
2018-06-27T17:29:19.465Z,25.70
2018-06-27T17:31:48.210Z,25.40
2018-06-27T17:34:16.960Z,25.30
2018-06-27T17:36:45.729Z,25.30
2018-06-27T17:39:14.483Z,25.40
2018-06-27T17:41:43.252Z,25.40
2018-06-27T17:44:11.996Z,25.20
2018-06-27T17:46:40.758Z,25.10
2018-06-27T17:49:09.528Z,25.00
2018-06-27T17:51:38.294Z,25.00
2018-06-27T17:54:07.073Z,25.00
2018-06-27T17:56:35.853Z,24.90
2018-06-27T17:59:04.776Z,24.90
2018-06-27T18:01:33.555Z,24.80
2018-06-27T18:04:02.319Z,24.70
2018-06-27T18:06:31.130Z,24.70
2018-06-27T18:08:59.948Z,24.50
2018-06-27T18:11:28.725Z,24.50
2018-06-27T18:13:57.494Z,24.40
2018-06-27T18:16:26.276Z,24.30
2018-06-27T18:18:55.171Z,24.20
2018-06-27T18:21:23.955Z,24.10
2018-06-27T18:23:52.796Z,24.00
2018-06-27T18:26:21.493Z,23.80
2018-06-27T18:28:50.254Z,23.80
2018-06-27T18:31:19.009Z,23.60
2018-06-27T18:33:47.903Z,23.50
2018-06-27T18:36:17.712Z,23.50
2018-06-27T18:38:46.532Z,23.40
2018-06-27T18:41:15.296Z,23.40
2018-06-27T18:43:44.167Z,23.40
2018-06-27T18:46:13.032Z,23.30
2018-06-27T18:48:41.837Z,23.30
2018-06-27T18:51:10.620Z,23.30
2018-06-27T18:53:39.391Z,23.30
2018-06-27T18:56:08.477Z,23.20
2018-06-27T18:58:37.288Z,23.10
2018-06-27T19:01:06.143Z,23.10
2018-06-27T19:03:35.280Z,23.00
2018-06-27T19:08:32.681Z,23.00
2018-06-27T19:11:01.477Z,22.90
2018-06-27T19:13:30.247Z,22.80
2018-06-27T19:15:59.144Z,22.70
2018-06-27T19:18:28.073Z,22.70
2018-06-27T19:20:56.864Z,22.70
2018-06-27T19:23:25.647Z,22.60
2018-06-27T19:25:54.425Z,22.60
2018-06-27T19:28:23.177Z,22.60
2018-06-27T19:30:51.952Z,22.50
2018-06-27T19:33:20.700Z,22.30
2018-06-27T19:35:49.620Z,22.30
2018-06-27T19:40:46.941Z,22.10
2018-06-27T19:43:15.656Z,22.00
2018-06-27T19:45:44.545Z,22.00
2018-06-27T19:48:13.235Z,21.90
2018-06-27T19:50:42.048Z,21.80
2018-06-27T19:53:10.851Z,21.70
2018-06-27T19:55:39.789Z,21.70
2018-06-27T19:58:08.499Z,21.60
2018-06-27T20:00:37.302Z,21.60
2018-06-27T20:03:06.119Z,21.50
2018-06-27T20:05:34.889Z,21.40
2018-06-27T20:08:03.704Z,21.40
2018-06-27T20:10:32.529Z,21.40
2018-06-27T20:13:01.277Z,21.30
2018-06-27T20:15:30.036Z,21.20
2018-06-27T20:17:58.829Z,21.00
2018-06-27T20:20:27.624Z,21.00
2018-06-27T20:22:56.704Z,20.90
2018-06-27T20:25:25.472Z,20.90
2018-06-27T20:27:54.234Z,20.80
2018-06-27T20:30:23.109Z,20.80
2018-06-27T20:32:51.968Z,20.70
2018-06-27T20:35:20.745Z,20.60
2018-06-27T20:37:49.809Z,20.60
2018-06-27T20:40:18.741Z,20.60
2018-06-27T20:42:47.463Z,20.60
2018-06-27T20:45:16.276Z,20.60
2018-06-27T20:47:45.103Z,20.50
2018-06-27T20:50:13.917Z,20.40
2018-06-27T20:52:42.735Z,20.30
2018-06-27T20:55:11.504Z,20.30
2018-06-27T20:57:40.345Z,20.20
2018-06-27T21:00:09.093Z,20.20
2018-06-27T21:02:37.912Z,20.20
2018-06-27T21:05:06.681Z,20.30
2018-06-27T21:07:35.445Z,20.20
2018-06-27T21:10:04.519Z,20.20
2018-06-27T21:12:33.327Z,20.10
2018-06-27T21:15:02.108Z,20.10
2018-06-27T21:17:30.861Z,20.00
2018-06-27T21:19:59.724Z,20.00
2018-06-27T21:22:28.684Z,20.00
2018-06-27T21:24:57.448Z,20.00
2018-06-27T21:27:26.212Z,19.90
2018-06-27T21:29:55.137Z,19.90
2018-06-27T21:32:23.912Z,19.80
2018-06-27T21:34:52.670Z,19.70
2018-06-27T21:37:21.425Z,19.60
2018-06-27T21:39:50.264Z,19.60
2018-06-27T21:42:19.040Z,19.50
2018-06-27T21:44:48.197Z,19.50
2018-06-27T21:47:16.995Z,19.50
2018-06-27T21:49:45.752Z,19.40
2018-06-27T21:52:14.616Z,19.30
2018-06-27T21:54:43.408Z,19.30
2018-06-27T21:57:12.160Z,19.20
2018-06-27T21:59:40.913Z,19.20
2018-06-27T22:02:09.700Z,19.10
2018-06-27T22:04:38.484Z,19.10
2018-06-27T22:07:07.259Z,19.00
2018-06-27T22:09:36.008Z,19.00
2018-06-27T22:12:04.792Z,18.90
2018-06-27T22:14:33.602Z,18.90
2018-06-27T22:17:02.501Z,18.80
2018-06-27T22:19:31.265Z,18.80
2018-06-27T22:22:00.020Z,18.90
2018-06-27T22:24:28.972Z,18.80
2018-06-27T22:26:57.853Z,18.80
2018-06-27T22:29:26.616Z,18.70
2018-06-27T22:31:55.396Z,18.80
2018-06-27T22:34:24.204Z,18.70
2018-06-27T22:36:53.014Z,18.70
2018-06-27T22:39:21.860Z,18.60
2018-06-27T22:41:50.709Z,18.60
2018-06-27T22:44:19.527Z,18.50
2018-06-27T22:46:48.310Z,18.50
2018-06-27T22:49:17.050Z,18.50
2018-06-27T22:51:45.847Z,18.40
2018-06-27T22:54:21.070Z,18.40
2018-06-27T22:56:49.892Z,18.40
2018-06-27T22:59:18.668Z,18.30
2018-06-27T23:01:48.344Z,18.20
2018-06-27T23:04:17.120Z,18.20
2018-06-27T23:06:45.949Z,18.10
2018-06-27T23:09:14.707Z,18.10
2018-06-27T23:11:43.475Z,18.10
2018-06-27T23:16:41.614Z,18.00
2018-06-27T23:19:10.360Z,18.00
2018-06-27T23:21:39.120Z,18.00
2018-06-27T23:24:08.011Z,18.00
2018-06-27T23:26:36.791Z,18.00
2018-06-27T23:29:05.815Z,17.90
2018-06-27T23:31:34.600Z,17.90
2018-06-27T23:36:31.864Z,17.80
2018-06-27T23:39:00.648Z,17.80
2018-06-27T23:41:29.429Z,17.70
2018-06-27T23:43:58.335Z,17.70
2018-06-27T23:46:27.080Z,17.70
2018-06-27T23:48:56.147Z,17.60
2018-06-27T23:51:24.992Z,17.60
2018-06-27T23:53:53.751Z,17.60
2018-06-27T23:56:22.511Z,17.50
2018-06-27T23:58:51.599Z,17.50
